Time;durP1;ratioP1;P1;durP2;ratioP2;P2;SDS_P1;SDS_P2;PMS_P1;PMS_P2;Temp;Humidity;BMP_temperature;BMP_pressure;BME280_temperature;BME280_humidity;BME280_pressure;Samples;Min_cycle;Max_cycle;Signal;HPM_P1;HPM_P2
2022/01/31 00:04:50;;;;;;;19.35;4.40;;;;;;;;;;10309602;28;20047;-67
2022/01/31 00:09:52;;;;;;;18.17;3.80;;;;;;;;;;10311361;28;20051;-67
2022/01/31 00:15:02;;;;;;;25.00;4.40;;;;;;;;;;10270630;28;20046;-66
2022/01/31 00:20:05;;;;;;;21.45;4.43;;;;;;;;;;10284341;28;20043;-66
2022/01/31 00:25:08;;;;;;;29.80;5.82;;;;;;;;;;10294164;28;20219;-66
2022/01/31 00:30:13;;;;;;;24.40;4.72;;;;;;;;;;10311162;28;20416;-67
2022/01/31 00:35:15;;;;;;;24.07;4.27;;;;;;;;;;10311492;28;20326;-66
2022/01/31 00:40:18;;;;;;;16.65;3.83;;;;;;;;;;10309968;28;20342;-66
2022/01/31 00:45:26;;;;;;;23.52;4.05;;;;;;;;;;10311389;28;20043;-66
2022/01/31 00:50:29;;;;;;;26.95;4.47;;;;;;;;;;10323427;28;20105;-66
2022/01/31 00:55:31;;;;;;;16.42;3.72;;;;;;;;;;10308208;28;20058;-67
2022/01/31 01:00:35;;;;;;;27.05;4.68;;;;;;;;;;10310063;28;20043;-66
2022/01/31 01:05:38;;;;;;;28.90;4.38;;;;;;;;;;10309223;28;20058;-66
2022/01/31 01:10:40;;;;;;;23.98;4.60;;;;;;;;;;10310234;28;20335;-66
2022/01/31 01:15:44;;;;;;;21.50;4.35;;;;;;;;;;10309731;28;20266;-67
2022/01/31 01:20:46;;;;;;;26.63;5.13;;;;;;;;;;10309027;28;20038;-66
2022/01/31 01:25:49;;;;;;;31.30;4.85;;;;;;;;;;10307641;28;20350;-66
2022/01/31 01:30:54;;;;;;;18.70;4.25;;;;;;;;;;10308182;28;20138;-66
2022/01/31 01:35:57;;;;;;;32.20;5.90;;;;;;;;;;10307277;28;20082;-66
2022/01/31 01:41:00;;;;;;;31.58;4.85;;;;;;;;;;10307890;28;20478;-66
2022/01/31 01:46:04;;;;;;;20.65;5.05;;;;;;;;;;10308549;28;20349;-66
2022/01/31 01:51:07;;;;;;;26.15;5.85;;;;;;;;;;10275668;28;20093;-66
2022/01/31 01:56:10;;;;;;;26.35;4.75;;;;;;;;;;10267934;29;20043;-67
2022/01/31 02:01:14;;;;;;;29.02;4.60;;;;;;;;;;10306882;28;20254;-67
2022/01/31 02:06:16;;;;;;;21.95;4.35;;;;;;;;;;10309678;28;20371;-65
2022/01/31 02:11:20;;;;;;;24.60;4.57;;;;;;;;;;10277008;28;20090;-65
2022/01/31 02:16:24;;;;;;;28.48;4.30;;;;;;;;;;10276182;28;20035;-67
2022/01/31 02:21:27;;;;;;;21.90;4.90;;;;;;;;;;10282606;28;20365;-67
2022/01/31 02:26:30;;;;;;;27.08;5.32;;;;;;;;;;10307699;28;20278;-67
2022/01/31 02:31:32;;;;;;;39.30;5.53;;;;;;;;;;10275408;28;20381;-66
2022/01/31 02:36:36;;;;;;;23.92;5.40;;;;;;;;;;10305768;28;20050;-66
2022/01/31 02:41:42;;;;;;;17.95;4.50;;;;;;;;;;10314651;28;20078;-67
2022/01/31 02:46:51;;;;;;;24.98;5.50;;;;;;;;;;10315003;28;20270;-67
2022/01/31 02:52:00;;;;;;;25.13;6.07;;;;;;;;;;10327615;28;20062;-66
2022/01/31 02:57:03;;;;;;;37.30;5.53;;;;;;;;;;10326963;28;20047;-66
2022/01/31 03:02:06;;;;;;;25.88;5.45;;;;;;;;;;10313898;28;20054;-67
2022/01/31 03:07:09;;;;;;;27.58;4.53;;;;;;;;;;10313740;28;20046;-67
2022/01/31 03:12:13;;;;;;;22.63;5.72;;;;;;;;;;10291531;28;20369;-66
2022/01/31 03:17:15;;;;;;;23.98;4.90;;;;;;;;;;10312972;28;20157;-66
2022/01/31 03:22:20;;;;;;;26.25;4.80;;;;;;;;;;10312790;28;20141;-66
2022/01/31 03:27:23;;;;;;;27.00;4.43;;;;;;;;;;10311401;28;20093;-65
2022/01/31 03:32:25;;;;;;;25.13;4.95;;;;;;;;;;10311803;28;20341;-66
2022/01/31 03:37:29;;;;;;;20.35;5.57;;;;;;;;;;10307178;28;20054;-67
2022/01/31 03:42:32;;;;;;;25.90;5.05;;;;;;;;;;10295205;28;20062;-67
2022/01/31 03:47:36;;;;;;;34.33;5.22;;;;;;;;;;10309583;28;20059;-67
2022/01/31 03:52:42;;;;;;;31.75;6.22;;;;;;;;;;10310284;28;20043;-67
2022/01/31 03:57:44;;;;;;;;;;;;;;;;;;10309646;28;20094;-67
2022/01/31 04:02:46;;;;;;;22.92;4.38;;;;;;;;;;10309672;28;20139;-67
2022/01/31 04:07:50;;;;;;;27.85;5.15;;;;;;;;;;10307114;28;20070;-67
2022/01/31 04:12:53;;;;;;;24.27;5.10;;;;;;;;;;10309245;28;20057;-67
2022/01/31 04:17:55;;;;;;;24.95;5.63;;;;;;;;;;10310318;28;20331;-67
2022/01/31 04:23:04;;;;;;;30.70;6.95;;;;;;;;;;10310137;28;20050;-67
2022/01/31 04:28:15;;;;;;;38.38;7.18;;;;;;;;;;10322547;28;20043;-66
2022/01/31 04:33:18;;;;;;;39.10;6.53;;;;;;;;;;10309604;28;20059;-66
2022/01/31 04:38:22;;;;;;;32.85;6.22;;;;;;;;;;10308420;28;20054;-66
2022/01/31 04:43:25;;;;;;;30.97;6.90;;;;;;;;;;10321933;28;20300;-65
2022/01/31 04:48:27;;;;;;;41.88;8.48;;;;;;;;;;10308341;28;20054;-67
2022/01/31 04:53:31;;;;;;;22.92;7.38;;;;;;;;;;10308925;28;20051;-66
2022/01/31 04:58:33;;;;;;;30.05;6.40;;;;;;;;;;10308201;28;20047;-67
2022/01/31 05:03:37;;;;;;;19.17;5.47;;;;;;;;;;10306646;28;20343;-66
2022/01/31 05:08:40;;;;;;;28.00;7.25;;;;;;;;;;10308798;28;20046;-66
2022/01/31 05:13:43;;;;;;;26.48;6.82;;;;;;;;;;10307947;28;20052;-66
2022/01/31 05:18:45;;;;;;;34.67;7.93;;;;;;;;;;10307504;28;20242;-67
2022/01/31 05:23:49;;;;;;;28.48;7.20;;;;;;;;;;10307630;28;20039;-65
2022/01/31 05:28:51;;;;;;;38.33;8.38;;;;;;;;;;10308740;28;20094;-66
2022/01/31 05:33:54;;;;;;;36.85;7.68;;;;;;;;;;10307920;28;20045;-66
2022/01/31 05:38:58;;;;;;;31.75;6.70;;;;;;;;;;10307317;28;20051;-66
2022/01/31 05:44:00;;;;;;;30.73;9.15;;;;;;;;;;10314524;28;20353;-66
2022/01/31 05:49:03;;;;;;;27.48;6.93;;;;;;;;;;10314479;28;20076;-66
2022/01/31 05:54:06;;;;;;;30.27;7.18;;;;;;;;;;10315178;28;20054;-66
2022/01/31 05:59:09;;;;;;;30.05;7.47;;;;;;;;;;10315277;28;20051;-66
2022/01/31 06:04:11;;;;;;;29.65;8.00;;;;;;;;;;10313520;28;20043;-66
2022/01/31 06:09:15;;;;;;;30.80;8.43;;;;;;;;;;10314479;28;20061;-65
2022/01/31 06:14:17;;;;;;;29.88;7.85;;;;;;;;;;10312179;28;20043;-66
2022/01/31 06:19:20;;;;;;;35.33;6.78;;;;;;;;;;10314207;28;20052;-66
2022/01/31 06:24:24;;;;;;;24.63;6.05;;;;;;;;;;10313153;28;20286;-66
2022/01/31 06:29:27;;;;;;;38.03;8.15;;;;;;;;;;10298422;28;20069;-66
2022/01/31 06:34:29;;;;;;;42.45;9.27;;;;;;;;;;10308534;28;20042;-66
2022/01/31 06:39:33;;;;;;;40.95;12.38;;;;;;;;;;10313082;28;20070;-67
2022/01/31 06:44:37;;;;;;;36.22;13.00;;;;;;;;;;10313948;28;20050;-66
2022/01/31 06:49:39;;;;;;;31.13;7.90;;;;;;;;;;10296012;28;20043;-67
2022/01/31 06:54:44;;;;;;;43.92;11.40;;;;;;;;;;10312335;28;20073;-67
2022/01/31 06:59:46;;;;;;;29.20;8.25;;;;;;;;;;10313655;28;20046;-68
2022/01/31 07:04:48;;;;;;;32.05;8.40;;;;;;;;;;10313979;28;20046;-67
2022/01/31 07:09:52;;;;;;;37.15;9.77;;;;;;;;;;10313294;28;20152;-66
2022/01/31 07:14:54;;;;;;;34.53;8.45;;;;;;;;;;10313668;28;20242;-67
2022/01/31 07:19:57;;;;;;;34.20;8.55;;;;;;;;;;10314191;28;20049;-69
2022/01/31 07:25:06;;;;;;;31.13;8.35;;;;;;;;;;10312964;28;20105;-66
2022/01/31 07:30:09;;;;;;;30.38;7.00;;;;;;;;;;10326456;28;20081;-67
2022/01/31 07:35:14;;;;;;;38.40;7.57;;;;;;;;;;10313140;28;20238;-68
2022/01/31 07:40:18;;;;;;;42.13;13.57;;;;;;;;;;10310255;28;20134;-69
2022/01/31 07:45:20;;;;;;;31.20;6.50;;;;;;;;;;10311758;28;20046;-67
2022/01/31 07:50:23;;;;;;;35.40;7.55;;;;;;;;;;10311979;28;20350;-70
2022/01/31 07:55:26;;;;;;;41.33;9.98;;;;;;;;;;10311407;28;20278;-68
2022/01/31 08:00:29;;;;;;;27.42;7.43;;;;;;;;;;10311956;28;20042;-67
2022/01/31 08:05:32;;;;;;;39.65;8.07;;;;;;;;;;10311112;28;20058;-69
2022/01/31 08:10:37;;;;;;;31.88;7.22;;;;;;;;;;10312111;28;20275;-68
2022/01/31 08:15:47;;;;;;;;;;;;;;;;;;10323776;28;20046;-66
2022/01/31 08:20:50;;;;;;;49.45;12.82;;;;;;;;;;10325048;28;19932;-68
2022/01/31 08:25:53;;;;;;;40.85;13.38;;;;;;;;;;10310822;28;20361;-68
2022/01/31 08:31:07;;;;;;;29.00;7.63;;;;;;;;;;10311308;28;20050;-66
2022/01/31 08:36:12;;;;;;;34.17;7.00;;;;;;;;;;10317631;28;20085;-68
2022/01/31 08:41:18;;;;;;;28.58;6.88;;;;;;;;;;10310527;28;20059;-68
2022/01/31 08:46:20;;;;;;;;;;;;;;;;;;10309272;28;20066;-68
2022/01/31 08:51:23;;;;;;;35.00;6.85;;;;;;;;;;10309072;28;20146;-68
2022/01/31 08:56:26;;;;;;;27.65;7.57;;;;;;;;;;10310851;28;20364;-68
2022/01/31 09:01:29;;;;;;;33.33;7.25;;;;;;;;;;10308289;28;20038;-69
2022/01/31 09:06:33;;;;;;;34.25;8.25;;;;;;;;;;10309836;28;20381;-70
2022/01/31 09:11:37;;;;;;;33.43;7.67;;;;;;;;;;10308270;28;20322;-67
2022/01/31 09:16:39;;;;;;;27.33;8.27;;;;;;;;;;10312117;28;20046;-69
2022/01/31 09:21:42;;;;;;;33.83;9.60;;;;;;;;;;10318422;28;20151;-68
2022/01/31 09:26:47;;;;;;;41.33;9.20;;;;;;;;;;10316839;28;20043;-66
2022/01/31 09:31:49;;;;;;;36.90;10.53;;;;;;;;;;10317650;28;20043;-67
2022/01/31 09:36:51;;;;;;;44.53;11.68;;;;;;;;;;10316276;28;20097;-67
2022/01/31 09:41:57;;;;;;;32.75;9.80;;;;;;;;;;10316364;28;20063;-66
2022/01/31 09:47:18;;;;;;;37.08;9.73;;;;;;;;;;10316505;28;20633;-69
2022/01/31 09:52:20;;;;;;;33.55;9.13;;;;;;;;;;10315292;28;20043;-66
2022/01/31 09:57:24;;;;;;;36.20;9.45;;;;;;;;;;10315200;28;20046;-67
2022/01/31 10:02:26;;;;;;;30.02;8.27;;;;;;;;;;10315074;28;20042;-69
2022/01/31 10:07:44;;;;;;;27.42;7.72;;;;;;;;;;10315097;28;20092;-69
2022/01/31 10:18:08;;;;;;;29.40;8.18;;;;;;;;;;10327743;28;20047;-69
2022/01/31 10:23:12;;;;;;;30.85;9.35;;;;;;;;;;10314651;28;20049;-68
2022/01/31 10:28:18;;;;;;;29.13;7.38;;;;;;;;;;10312427;28;20161;-67
2022/01/31 10:33:25;;;;;;;24.98;7.25;;;;;;;;;;10326530;28;20046;-67
2022/01/31 10:38:35;;;;;;;35.05;11.70;;;;;;;;;;10314089;28;20046;-69
2022/01/31 10:54:35;;;;;;;27.95;6.90;;;;;;;;;;10326372;28;20050;-69
2022/01/31 10:59:40;;;;;;;30.75;8.30;;;;;;;;;;10326368;28;20046;-69
2022/01/31 11:04:44;;;;;;;23.90;7.70;;;;;;;;;;10325943;28;20054;-68
2022/01/31 11:09:49;;;;;;;28.05;7.32;;;;;;;;;;10311392;28;20051;-69
2022/01/31 11:14:54;;;;;;;29.30;7.22;;;;;;;;;;10312551;28;20043;-66
2022/01/31 11:19:57;;;;;;;28.23;6.80;;;;;;;;;;10324354;28;20057;-68
2022/01/31 11:25:02;;;;;;;24.00;6.90;;;;;;;;;;10310814;28;20442;-68
2022/01/31 11:30:08;;;;;;;23.17;6.95;;;;;;;;;;10324572;28;20219;-67
2022/01/31 11:35:11;;;;;;;24.10;6.43;;;;;;;;;;10293800;28;20046;-66
2022/01/31 11:40:16;;;;;;;31.25;7.20;;;;;;;;;;10309169;28;20301;-68
2022/01/31 11:45:25;;;;;;;;;;;;;;;;;;10323389;28;20286;-70
2022/01/31 11:50:28;;;;;;;32.35;8.23;;;;;;;;;;10311338;28;19918;-67
2022/01/31 11:55:33;;;;;;;35.58;9.57;;;;;;;;;;10311445;28;20050;-69
2022/01/31 12:00:40;;;;;;;27.20;10.73;;;;;;;;;;10310453;28;20160;-68
2022/01/31 12:05:43;;;;;;;27.58;9.10;;;;;;;;;;10324174;28;20318;-68
2022/01/31 12:10:48;;;;;;;35.28;9.18;;;;;;;;;;10311956;28;20337;-69
2022/01/31 12:16:09;;;;;;;20.50;7.87;;;;;;;;;;10292796;28;20354;-68
2022/01/31 12:26:49;;;;;;;28.73;9.75;;;;;;;;;;10287837;28;20062;-69
2022/01/31 12:31:54;;;;;;;37.05;12.48;;;;;;;;;;10322308;28;20054;-68
2022/01/31 12:36:59;;;;;;;32.30;11.30;;;;;;;;;;10309587;28;20366;-69
2022/01/31 12:42:14;;;;;;;26.58;9.60;;;;;;;;;;10308848;28;20058;-68
2022/01/31 12:47:19;;;;;;;27.55;8.52;;;;;;;;;;10322516;28;20386;-68
2022/01/31 12:52:34;;;;;;;31.52;10.85;;;;;;;;;;10308328;28;20046;-68
2022/01/31 12:57:46;;;;;;;;;;;;;;;;;;10309551;28;20054;-67
2022/01/31 13:02:51;;;;;;;28.80;7.78;;;;;;;;;;10309185;28;19926;-66
2022/01/31 13:07:53;;;;;;;25.05;7.20;;;;;;;;;;10308934;28;20512;-67
2022/01/31 13:13:00;;;;;;;35.85;8.02;;;;;;;;;;10308141;28;20047;-67
2022/01/31 13:18:05;;;;;;;24.67;9.02;;;;;;;;;;10309810;28;20250;-67
2022/01/31 13:23:07;;;;;;;;;;;;;;;;;;10322372;28;20282;-69
2022/01/31 13:28:10;;;;;;;29.35;8.00;;;;;;;;;;10307981;28;20217;-67
2022/01/31 13:33:15;;;;;;;29.98;7.15;;;;;;;;;;10309973;28;20043;-66
2022/01/31 13:38:21;;;;;;;27.23;8.27;;;;;;;;;;10308334;28;20046;-69
2022/01/31 13:43:28;;;;;;;26.58;8.27;;;;;;;;;;10323990;28;20043;-69
2022/01/31 13:48:53;;;;;;;31.90;8.85;;;;;;;;;;10321505;28;20042;-68
2022/01/31 13:53:55;;;;;;;34.75;9.20;;;;;;;;;;10308255;28;20046;-69
2022/01/31 13:59:00;;;;;;;38.03;9.23;;;;;;;;;;10306871;28;20070;-69
2022/01/31 14:04:04;;;;;;;38.50;10.13;;;;;;;;;;10312907;28;20043;-66
2022/01/31 14:09:09;;;;;;;30.15;9.77;;;;;;;;;;10314498;28;20058;-68
2022/01/31 14:14:14;;;;;;;32.10;8.73;;;;;;;;;;10313792;28;20051;-69
2022/01/31 14:19:18;;;;;;;30.20;9.25;;;;;;;;;;10327739;28;20046;-68
2022/01/31 14:24:22;;;;;;;35.50;9.63;;;;;;;;;;10314336;28;20050;-69
2022/01/31 14:29:25;;;;;;;49.90;15.07;;;;;;;;;;10314001;28;20069;-69
2022/01/31 14:34:29;;;;;;;55.17;17.90;;;;;;;;;;10313236;28;20050;-70
2022/01/31 14:39:38;;;;;;;44.47;12.95;;;;;;;;;;10313331;28;20055;-71
2022/01/31 14:50:14;;;;;;;48.55;15.20;;;;;;;;;;10306721;28;20310;-69
2022/01/31 14:55:19;;;;;;;90.78;25.88;;;;;;;;;;10326520;28;20048;-66
2022/01/31 15:00:27;;;;;;;102.68;27.75;;;;;;;;;;10315321;28;20077;-68
2022/01/31 15:05:31;;;;;;;79.10;18.73;;;;;;;;;;10297101;28;20106;-68
2022/01/31 15:10:34;;;;;;;104.30;29.83;;;;;;;;;;10314980;28;20047;-67
2022/01/31 15:15:36;;;;;;;134.05;38.63;;;;;;;;;;10313029;28;20055;-68
2022/01/31 15:20:40;;;;;;;108.88;30.60;;;;;;;;;;10314552;28;20039;-69
2022/01/31 15:25:43;;;;;;;101.63;26.75;;;;;;;;;;10298967;28;20108;-69
2022/01/31 15:30:46;;;;;;;87.82;24.33;;;;;;;;;;10303418;28;20047;-67
2022/01/31 15:35:52;;;;;;;91.95;28.25;;;;;;;;;;10313751;28;20050;-72
2022/01/31 15:40:56;;;;;;;112.13;31.83;;;;;;;;;;10319321;28;20046;-67
2022/01/31 15:45:59;;;;;;;87.15;26.30;;;;;;;;;;10312027;28;20050;-68
2022/01/31 15:51:04;;;;;;;98.53;30.73;;;;;;;;;;10307403;28;20046;-67
2022/01/31 15:56:06;;;;;;;130.10;41.95;;;;;;;;;;10313154;28;20051;-67
2022/01/31 16:01:12;;;;;;;120.28;39.08;;;;;;;;;;10311768;28;20057;-68
2022/01/31 16:06:15;;;;;;;87.60;29.02;;;;;;;;;;10326131;28;20042;-70
2022/01/31 16:11:18;;;;;;;72.72;23.23;;;;;;;;;;10315090;28;20054;-67
2022/01/31 16:16:20;;;;;;;58.35;21.27;;;;;;;;;;10312316;28;20043;-68
2022/01/31 16:21:24;;;;;;;112.32;31.77;;;;;;;;;;10311367;28;20117;-68
2022/01/31 16:26:26;;;;;;;99.93;31.92;;;;;;;;;;10311821;28;20043;-70
2022/01/31 16:31:31;;;;;;;111.63;37.05;;;;;;;;;;10312952;28;20046;-69
2022/01/31 16:36:35;;;;;;;143.65;44.95;;;;;;;;;;10311610;28;20054;-70
2022/01/31 16:41:38;;;;;;;110.05;35.42;;;;;;;;;;10312280;28;20059;-73
2022/01/31 16:46:41;;;;;;;93.70;29.15;;;;;;;;;;10313013;28;20050;-70
2022/01/31 16:51:47;;;;;;;96.05;28.90;;;;;;;;;;10311475;28;20054;-67
2022/01/31 16:56:50;;;;;;;85.97;26.80;;;;;;;;;;10312015;28;20057;-68
2022/01/31 17:01:53;;;;;;;74.47;27.58;;;;;;;;;;10311879;28;20045;-70
2022/01/31 17:06:57;;;;;;;84.05;27.15;;;;;;;;;;10311930;28;20047;-68
2022/01/31 17:12:00;;;;;;;85.25;29.83;;;;;;;;;;10312017;28;20234;-69
2022/01/31 17:17:03;;;;;;;112.72;33.60;;;;;;;;;;10312119;28;20105;-66
2022/01/31 17:22:06;;;;;;;92.22;28.77;;;;;;;;;;10312513;28;20050;-69
2022/01/31 17:27:09;;;;;;;86.15;26.27;;;;;;;;;;10309758;28;20050;-69
2022/01/31 17:32:11;;;;;;;75.93;26.88;;;;;;;;;;10310969;28;20326;-67
2022/01/31 17:37:15;;;;;;;84.65;29.50;;;;;;;;;;10313163;28;20148;-71
2022/01/31 17:42:21;;;;;;;91.10;31.25;;;;;;;;;;10341065;28;20062;-67
2022/01/31 17:47:23;;;;;;;90.80;30.60;;;;;;;;;;10332185;28;20039;-67
2022/01/31 17:52:27;;;;;;;89.45;30.40;;;;;;;;;;10319040;28;20238;-70
2022/01/31 17:57:31;;;;;;;84.85;29.08;;;;;;;;;;10318650;28;20042;-71
2022/01/31 18:02:34;;;;;;;108.33;38.70;;;;;;;;;;10298488;28;20043;-70
2022/01/31 18:07:38;;;;;;;104.88;34.42;;;;;;;;;;10318343;28;20067;-66
2022/01/31 18:12:41;;;;;;;88.40;33.00;;;;;;;;;;10317725;28;20047;-68
2022/01/31 18:17:43;;;;;;;94.78;30.38;;;;;;;;;;10318467;28;20335;-70
2022/01/31 18:22:47;;;;;;;96.10;30.45;;;;;;;;;;10317481;28;20296;-70
2022/01/31 18:27:49;;;;;;;95.72;35.45;;;;;;;;;;10317295;28;20089;-69
2022/01/31 18:32:52;;;;;;;91.32;32.35;;;;;;;;;;10316585;28;20094;-68
2022/01/31 18:37:56;;;;;;;84.55;31.15;;;;;;;;;;10316380;28;20043;-66
2022/01/31 18:42:59;;;;;;;80.95;27.70;;;;;;;;;;10315800;28;20055;-65
2022/01/31 18:48:01;;;;;;;96.63;29.30;;;;;;;;;;10315407;28;20035;-67
2022/01/31 18:53:05;;;;;;;100.53;30.60;;;;;;;;;;10308440;28;20046;-67
2022/01/31 18:58:08;;;;;;;93.22;28.85;;;;;;;;;;10312856;28;20038;-68
2022/01/31 19:03:10;;;;;;;89.88;29.35;;;;;;;;;;10315051;28;20094;-67
2022/01/31 19:08:19;;;;;;;84.95;26.48;;;;;;;;;;10314493;28;20051;-69
2022/01/31 19:13:26;;;;;;;77.80;24.98;;;;;;;;;;10326630;28;20274;-66
2022/01/31 19:18:29;;;;;;;76.18;22.63;;;;;;;;;;10327154;28;20106;-66
2022/01/31 19:23:33;;;;;;;86.40;27.00;;;;;;;;;;10313738;28;20055;-66
2022/01/31 19:28:36;;;;;;;74.35;23.83;;;;;;;;;;10312486;28;20047;-70
2022/01/31 19:33:40;;;;;;;69.80;21.60;;;;;;;;;;10313114;28;20058;-71
2022/01/31 19:38:47;;;;;;;54.08;20.48;;;;;;;;;;10312653;28;20063;-68
2022/01/31 19:43:50;;;;;;;62.92;22.77;;;;;;;;;;10326628;28;20349;-66
2022/01/31 19:48:56;;;;;;;59.47;21.48;;;;;;;;;;10312196;28;20053;-69
2022/01/31 19:53:59;;;;;;;;;;;;;;;;;;10312324;28;20058;-69
2022/01/31 19:59:02;;;;;;;63.10;23.00;;;;;;;;;;10313881;28;20186;-68
2022/01/31 20:04:05;;;;;;;62.75;23.13;;;;;;;;;;10313374;28;20050;-68
2022/01/31 20:09:10;;;;;;;68.68;23.02;;;;;;;;;;10311766;28;20043;-69
2022/01/31 20:14:14;;;;;;;58.28;21.90;;;;;;;;;;10310912;28;20261;-68
2022/01/31 20:19:16;;;;;;;57.40;21.27;;;;;;;;;;10311730;28;20055;-68
2022/01/31 20:24:21;;;;;;;56.03;20.60;;;;;;;;;;10310616;28;20253;-68
2022/01/31 20:29:24;;;;;;;;;;;;;;;;;;10311471;28;20449;-69
2022/01/31 20:34:26;;;;;;;66.18;23.40;;;;;;;;;;10311806;28;20066;-66
2022/01/31 20:39:47;;;;;;;63.90;25.02;;;;;;;;;;10307070;28;20374;-67
2022/01/31 20:44:50;;;;;;;68.70;22.75;;;;;;;;;;10321946;28;20062;-68
2022/01/31 20:49:52;;;;;;;62.33;21.75;;;;;;;;;;10307344;28;20042;-67
2022/01/31 20:54:56;;;;;;;55.95;19.48;;;;;;;;;;10307073;28;20406;-67
2022/01/31 20:59:58;;;;;;;55.03;19.52;;;;;;;;;;10308803;28;20046;-67
2022/01/31 21:05:00;;;;;;;50.13;18.95;;;;;;;;;;10308453;28;20061;-68
2022/01/31 21:10:05;;;;;;;43.85;17.77;;;;;;;;;;10307843;28;20096;-69
2022/01/31 21:15:09;;;;;;;52.28;20.75;;;;;;;;;;10304234;28;20039;-67
2022/01/31 21:20:13;;;;;;;55.60;20.70;;;;;;;;;;10309820;28;20082;-68
2022/01/31 21:25:17;;;;;;;52.93;20.30;;;;;;;;;;10308890;28;20055;-68
2022/01/31 21:30:23;;;;;;;52.20;18.60;;;;;;;;;;10308881;28;20274;-66
2022/01/31 21:35:26;;;;;;;;;;;;;;;;;;10318337;28;20082;-68
2022/01/31 21:40:30;;;;;;;47.83;18.45;;;;;;;;;;10306945;28;19969;-67
2022/01/31 21:45:32;;;;;;;52.45;19.25;;;;;;;;;;10308582;28;20410;-68
2022/01/31 21:50:34;;;;;;;62.78;20.88;;;;;;;;;;10308573;28;20069;-68
2022/01/31 21:55:40;;;;;;;69.53;24.80;;;;;;;;;;10308562;28;20051;-68
2022/01/31 22:00:43;;;;;;;163.25;38.78;;;;;;;;;;10322359;28;20046;-68
2022/01/31 22:05:46;;;;;;;192.25;47.08;;;;;;;;;;10309403;28;20057;-65
2022/01/31 22:11:09;;;;;;;141.23;44.42;;;;;;;;;;10307303;28;20058;-67
2022/01/31 22:16:12;;;;;;;116.43;37.65;;;;;;;;;;10321114;28;20141;-69
2022/01/31 22:21:14;;;;;;;122.93;36.00;;;;;;;;;;10309592;28;20117;-67
2022/01/31 22:26:19;;;;;;;218.07;62.72;;;;;;;;;;10315006;28;20047;-68
2022/01/31 22:31:21;;;;;;;178.77;49.92;;;;;;;;;;10315548;28;20058;-65
2022/01/31 22:36:27;;;;;;;306.50;75.88;;;;;;;;;;10314300;28;20047;-67
2022/01/31 22:41:31;;;;;;;208.50;51.92;;;;;;;;;;10320379;28;20051;-68
2022/01/31 22:46:34;;;;;;;201.93;51.33;;;;;;;;;;10315748;28;20043;-66
2022/01/31 22:51:36;;;;;;;193.85;55.58;;;;;;;;;;10315399;28;20365;-66
2022/01/31 22:56:40;;;;;;;208.75;59.15;;;;;;;;;;10314606;28;20039;-67
2022/01/31 23:01:43;;;;;;;159.70;48.47;;;;;;;;;;10313980;28;20057;-66
2022/01/31 23:06:46;;;;;;;130.43;40.78;;;;;;;;;;10314322;28;20226;-68
2022/01/31 23:11:50;;;;;;;71.03;26.05;;;;;;;;;;10314308;28;20066;-67
2022/01/31 23:16:56;;;;;;;56.17;20.92;;;;;;;;;;10313851;28;20050;-68
2022/01/31 23:22:26;;;;;;;57.10;20.65;;;;;;;;;;10326920;28;20082;-68
2022/01/31 23:44:01;;;;;;;69.68;23.70;;;;;;;;;;10225335;29;20069;-68
2022/01/31 23:54:27;;;;;;;90.05;29.83;;;;;;;;;;10199451;29;20052;-68
2022/01/31 23:59:44;;;;;;;77.45;28.20;;;;;;;;;;10236776;29;20048;-69
